Costa Luminosa — ICGU — position and weather

sailwx.info

Track history (hours):
 
Tides and Currents Weather Stations Pressure Air Temp Water Temp Dewpoint Dewpoint Depression Visibility Wind Speed Wind Dir Waves Ship Positions

Costa Luminosa

Last reported at 2017-Sep-20 00:28 UTC. Time now 2017-Sep-20 00:33 UTC.
Position N 37°02' E 024°33'.

Length 294 m; draft 8 m.

Type: Passenger vessel. MMSI: 247257900.

Date/timePositionNaut miles runAvg speedWind from/ knotsBaromVisibWave heightAir tempDewpointWater temp
2017-Sep-20 00:28N 37°02' E 024°33'816.7
2017-Sep-20 00:01N 36°58' E 024°25'816.7
2017-Sep-19 23:31N 36°53' E 024°16'816.7
2017-Sep-19 23:00N 36°48' E 024°08'816.5
2017-Sep-19 22:30N 36°43' E 023°59'816.8
2017-Sep-19 22:00N 36°38' E 023°51'816.7
2017-Sep-19 21:31N 36°34' E 023°42'816.9
2017-Sep-19 21:00N 36°30' E 023°33'917.1
2017-Sep-19 20:30N 36°27' E 023°23'816.7
2017-Sep-19 20:00N 36°24' E 023°13'200 9.0
2017-Sep-18 21:42N 38°47' E 020°18'42315.1
2017-Sep-17 17:47N 44°04' E 014°05'621.6
2017-Sep-17 17:30N 44°09' E 014°00'1121.4
2017-Sep-17 17:00N 44°18' E 013°52'1020.5
2017-Sep-17 16:30N 44°27' E 013°44'1020.3
2017-Sep-17 16:00N 44°35' E 013°36'1020.4
2017-Sep-17 15:30N 44°44' E 013°28'1020.4
2017-Sep-17 15:00N 44°52' E 013°20'1020.2
2017-Sep-17 14:30N 45°00' E 013°13'1019.9
2017-Sep-17 14:00N 45°09' E 013°06'1019.8
2017-Sep-17 13:30N 45°19' E 013°03'917.8
2017-Sep-17 13:00N 45°27' E 013°09'1019.4
2017-Sep-17 12:30N 45°34' E 013°18'1019.2
2017-Sep-17 12:00N 45°38' E 013°31'917.1
2017-Sep-17 11:30N 45°39' E 013°43'2 4.0
2017-Sep-17 11:00N 45°39' E 013°46'0 0.0
2017-Sep-17 10:30N 45°39' E 013°46'0 0.0
2017-Sep-17 10:00N 45°39' E 013°46'0 0.0
2017-Sep-17 09:30N 45°39' E 013°46'0 0.0
2017-Sep-17 09:00N 45°39' E 013°46'0 0.0
2017-Sep-17 08:30N 45°39' E 013°46'0 0.0
2017-Sep-17 08:00N 45°39' E 013°46'0 0.0
2017-Sep-17 07:27N 45°39' E 013°46'0 0.0
2017-Sep-17 06:54N 45°39' E 013°46'0 0.0
2017-Sep-17 06:30N 45°39' E 013°46'0 0.0
2017-Sep-17 06:00N 45°39' E 013°46'0 0.0
2017-Sep-17 05:30N 45°39' E 013°46'0 0.0
2017-Sep-17 05:00N 45°39' E 013°46'0 0.0
2017-Sep-17 04:30N 45°39' E 013°46'2 3.6
2017-Sep-17 04:00N 45°39' E 013°43'4 8.2
2017-Sep-17 03:30N 45°38' E 013°38'5 9.0
2017-Sep-17 03:00N 45°35' E 013°33'5 9.2
2017-Sep-17 02:30N 45°33' E 013°27'4 9.2
2017-Sep-17 02:00N 45°30' E 013°21'4 9.0
2017-Sep-17 01:30N 45°28' E 013°16'4 8.8
2017-Sep-17 01:00N 45°27' E 013°10'4 8.8
2017-Sep-17 00:30N 45°25' E 013°04'4 8.7
2017-Sep-17 00:00N 45°24' E 012°58'4 8.9
2017-Sep-16 23:30N 45°21' E 012°53'4 9.0
2017-Sep-16 23:00N 45°17' E 012°50'5 9.1
2017-Sep-16 22:30N 45°13' E 012°47'5 9.2
2017-Sep-16 22:00N 45°10' E 012°42'4 8.2
2017-Sep-16 21:30N 45°08' E 012°37'5 9.7
2017-Sep-16 21:00N 45°11' E 012°31'5 9.4
2017-Sep-16 20:30N 45°16' E 012°30'5 9.6
2017-Sep-16 20:00N 45°20' E 012°30'4 9.0
2017-Sep-16 19:30N 45°25' E 012°28'4 7.2
2017-Sep-16 19:00N 45°26' E 012°23'2 4.9
2017-Sep-16 18:30N 45°26' E 012°19'1 1.1
2017-Sep-16 18:00N 45°26' E 012°18'0 0.0
2017-Sep-16 17:30N 45°26' E 012°18'0 0.0
2017-Sep-16 17:00N 45°26' E 012°18'0 0.0
2017-Sep-16 16:30N 45°26' E 012°18'0 0.0
2017-Sep-16 16:00N 45°26' E 012°18'0 0.0
2017-Sep-16 15:30N 45°26' E 012°18'0 0.0
2017-Sep-16 15:00N 45°26' E 012°18'0 0.0
2017-Sep-16 14:30N 45°26' E 012°18'0 0.0
2017-Sep-16 14:00N 45°26' E 012°18'0 0.0
2017-Sep-16 13:30N 45°26' E 012°18'0 0.0
2017-Sep-16 13:00N 45°26' E 012°18'0 0.0
2017-Sep-16 12:30N 45°26' E 012°18'0 0.0
2017-Sep-16 12:00N 45°26' E 012°18'0 0.0
2017-Sep-16 11:30N 45°26' E 012°18'0 0.0
2017-Sep-16 11:00N 45°26' E 012°18'0 0.0
2017-Sep-16 10:30N 45°26' E 012°18'0 0.0
2017-Sep-16 10:00N 45°26' E 012°18'0 0.0
2017-Sep-16 09:30N 45°26' E 012°18'0 0.0
2017-Sep-16 09:00N 45°26' E 012°18'0 0.0
2017-Sep-16 08:30N 45°26' E 012°18'0 0.0
2017-Sep-16 08:00N 45°26' E 012°18'0 0.0
2017-Sep-16 07:30N 45°26' E 012°18'0 0.0
2017-Sep-16 07:00N 45°26' E 012°18'0 0.0
2017-Sep-16 06:29N 45°26' E 012°18'0 0.9
2017-Sep-16 06:01N 45°26' E 012°19'2 4.9
2017-Sep-16 05:30N 45°26' E 012°22'4 7.2
2017-Sep-16 05:00N 45°25' E 012°27'917.6
2017-Sep-16 04:30N 45°19' E 012°37'1020.6
2017-Sep-16 04:00N 45°12' E 012°47'1021.1
2017-Sep-16 03:30N 45°05' E 012°59'1121.5
2017-Sep-16 03:00N 44°60' E 013°12'1121.0
2017-Sep-16 02:30N 44°53' E 013°24'1121.3
2017-Sep-16 02:00N 44°44' E 013°32'1121.2
2017-Sep-16 01:30N 44°36' E 013°40'1121.0
2017-Sep-16 01:00N 44°27' E 013°48'1121.1
2017-Sep-16 00:30N 44°18' E 013°56'1121.0
2017-Sep-15 23:59N 44°09' E 014°05'1021.2
2017-Sep-15 23:30N 44°02' E 014°16'27310.4
2017-Sep-14 21:21N 41°03' E 018°54'719.7
2017-Sep-14 21:01N 40°56' E 018°56'1019.9
2017-Sep-14 20:29N 40°46' E 018°59'1019.8
2017-Sep-14 20:00N 40°37' E 019°01'1019.5
2017-Sep-14 19:31N 40°27' E 019°04'1019.3
2017-Sep-14 19:00N 40°18' E 019°06'1119.0
2017-Sep-14 18:26N 40°07' E 019°09'1119.1
2017-Sep-14 17:52N 39°56' E 019°12'919.0
2017-Sep-14 17:22N 39°47' E 019°15'1319.1
2017-Sep-14 16:43N 39°36' E 019°21'819.3
2017-Sep-14 16:18N 39°28' E 019°26'619.4
2017-Sep-14 16:00N 39°23' E 019°29'918.9
2017-Sep-14 15:30N 39°15' E 019°33'27714.4
2017-Sep-13 20:16N 37°12' E 024°50'519.1
2017-Sep-13 20:00N 37°15' E 024°55'1019.3
2017-Sep-13 19:30N 37°21' E 025°04'917.5
2017-Sep-13 19:00N 37°28' E 025°11'712.2
2017-Sep-13 18:28N 37°27' E 025°19'0 0.0
2017-Sep-13 17:58N 37°27' E 025°19'0 0.0
2017-Sep-13 17:25N 37°27' E 025°19'0 0.0
2017-Sep-13 16:52N 37°27' E 025°19'0 0.1
2017-Sep-13 16:28N 37°27' E 025°19'0 0.1
2017-Sep-13 15:58N 37°27' E 025°19'0 0.0
2017-Sep-13 15:22N 37°27' E 025°19'0 0.0
2017-Sep-13 14:58N 37°27' E 025°19'0 0.0
2017-Sep-13 14:28N 37°27' E 025°19'0 0.0
2017-Sep-13 13:58N 37°27' E 025°19'0 0.0
2017-Sep-13 13:28N 37°27' E 025°19'0 0.0
2017-Sep-13 12:37N 37°27' E 025°19'0 0.0
2017-Sep-13 12:28N 37°27' E 025°19'0 0.0
2017-Sep-13 11:58N 37°27' E 025°19'0 0.1
2017-Sep-13 11:28N 37°27' E 025°19'0 0.1
2017-Sep-13 10:58N 37°27' E 025°19'0 0.1
2017-Sep-13 10:28N 37°27' E 025°19'0 0.1
2017-Sep-13 09:58N 37°27' E 025°19'0 0.0
2017-Sep-13 09:28N 37°27' E 025°19'0 0.0
2017-Sep-13 08:58N 37°27' E 025°19'0 0.0
2017-Sep-13 08:28N 37°27' E 025°19'0 0.0
2017-Sep-13 07:58N 37°27' E 025°19'0 0.0
2017-Sep-13 07:28N 37°27' E 025°19'0 0.0
2017-Sep-13 06:58N 37°27' E 025°19'0 0.0
2017-Sep-13 06:28N 37°27' E 025°19'0 0.0
2017-Sep-13 05:58N 37°27' E 025°19'0 0.0
2017-Sep-13 05:28N 37°27' E 025°19'0 0.0
2017-Sep-13 04:52N 37°27' E 025°19'0 0.1
2017-Sep-13 04:28N 37°27' E 025°19'2 3.3
2017-Sep-13 04:00N 37°28' E 025°17'612.7
2017-Sep-13 03:31N 37°27' E 025°09'713.8
2017-Sep-13 03:00N 37°20' E 025°05'713.8
2017-Sep-13 02:30N 37°17' E 024°58'713.8
2017-Sep-13 02:00N 37°13' E 024°51'  
2017-Sep-10 17:47N 44°03' E 014°06'620.5
2017-Sep-10 17:30N 44°08' E 014°01'1020.5
2017-Sep-10 17:00N 44°16' E 013°53'1020.5
2017-Sep-10 16:30N 44°25' E 013°45'1020.4
2017-Sep-10 16:00N 44°33' E 013°38'1020.4
2017-Sep-10 15:30N 44°42' E 013°30'1020.4
2017-Sep-10 15:00N 44°51' E 013°22'2020.0
2017-Sep-10 14:00N 45°07' E 013°06'1019.1
2017-Sep-10 13:30N 45°16' E 013°02'917.8
2017-Sep-10 13:00N 45°25' E 013°06'1020.0
2017-Sep-10 12:30N 45°32' E 013°16'1019.9
2017-Sep-10 12:00N 45°36' E 013°29'918.4
2017-Sep-10 11:30N 45°39' E 013°41'3 5.9
2017-Sep-10 10:58N 45°39' E 013°46'0 0.0
2017-Sep-10 10:22N 45°39' E 013°46'0 0.0
2017-Sep-10 09:58N 45°39' E 013°46'0 0.0
2017-Sep-10 09:28N 45°39' E 013°46'0 0.0
2017-Sep-10 08:55N 45°39' E 013°46'0 0.0
2017-Sep-10 08:25N 45°39' E 013°46'0 0.0
2017-Sep-10 07:58N 45°39' E 013°46'0 0.0
2017-Sep-10 07:22N 45°39' E 013°46'0 0.0
2017-Sep-10 06:58N 45°39' E 013°46'0 0.0
2017-Sep-10 06:25N 45°39' E 013°46'0 0.0
2017-Sep-10 05:55N 45°39' E 013°46'0 0.0
2017-Sep-10 05:25N 45°39' E 013°46'0 0.0
2017-Sep-10 04:58N 45°39' E 013°46'0 0.0
2017-Sep-10 04:28N 45°39' E 013°46'3 5.4
2017-Sep-10 04:00N 45°39' E 013°42'5 9.1
2017-Sep-10 03:30N 45°37' E 013°36'4 8.8
2017-Sep-10 03:00N 45°34' E 013°31'4 8.6
2017-Sep-10 02:30N 45°32' E 013°26'4 8.5
2017-Sep-10 02:00N 45°30' E 013°21'4 8.7
2017-Sep-10 01:30N 45°28' E 013°15'4 8.7
2017-Sep-10 01:00N 45°27' E 013°09'4 8.5
2017-Sep-10 00:30N 45°26' E 013°03'  
Track history (hours):
 
Tides and Currents Weather Stations Pressure Air Temp Water Temp Dewpoint Dewpoint Depression Visibility Wind Speed Wind Dir Waves Ship Positions

Costa Luminosa

Last reported at 2017-Sep-20 00:28 UTC. Time now 2017-Sep-20 00:33 UTC.
Position N 37°02' E 024°33'.

Length 294 m; draft 8 m.

Type: Passenger vessel. MMSI: 247257900.

Date/timePositionNaut miles runAvg speedWind from/ knotsBaromVisibWave heightAir tempDewpointWater temp
2017-Sep-20 00:28N 37°02' E 024°33'816.7
2017-Sep-20 00:01N 36°58' E 024°25'816.7
2017-Sep-19 23:31N 36°53' E 024°16'816.7
2017-Sep-19 23:00N 36°48' E 024°08'816.5
2017-Sep-19 22:30N 36°43' E 023°59'816.8
2017-Sep-19 22:00N 36°38' E 023°51'816.7
2017-Sep-19 21:31N 36°34' E 023°42'816.9
2017-Sep-19 21:00N 36°30' E 023°33'917.1
2017-Sep-19 20:30N 36°27' E 023°23'816.7
2017-Sep-19 20:00N 36°24' E 023°13'200 9.0
2017-Sep-18 21:42N 38°47' E 020°18'42315.1
2017-Sep-17 17:47N 44°04' E 014°05'621.6
2017-Sep-17 17:30N 44°09' E 014°00'1121.4
2017-Sep-17 17:00N 44°18' E 013°52'1020.5
2017-Sep-17 16:30N 44°27' E 013°44'1020.3
2017-Sep-17 16:00N 44°35' E 013°36'1020.4
2017-Sep-17 15:30N 44°44' E 013°28'1020.4
2017-Sep-17 15:00N 44°52' E 013°20'1020.2
2017-Sep-17 14:30N 45°00' E 013°13'1019.9
2017-Sep-17 14:00N 45°09' E 013°06'1019.8
2017-Sep-17 13:30N 45°19' E 013°03'917.8
2017-Sep-17 13:00N 45°27' E 013°09'1019.4
2017-Sep-17 12:30N 45°34' E 013°18'1019.2
2017-Sep-17 12:00N 45°38' E 013°31'917.1
2017-Sep-17 11:30N 45°39' E 013°43'2 4.0
2017-Sep-17 11:00N 45°39' E 013°46'0 0.0
2017-Sep-17 10:30N 45°39' E 013°46'0 0.0
2017-Sep-17 10:00N 45°39' E 013°46'0 0.0
2017-Sep-17 09:30N 45°39' E 013°46'0 0.0
2017-Sep-17 09:00N 45°39' E 013°46'0 0.0
2017-Sep-17 08:30N 45°39' E 013°46'0 0.0
2017-Sep-17 08:00N 45°39' E 013°46'0 0.0
2017-Sep-17 07:27N 45°39' E 013°46'0 0.0
2017-Sep-17 06:54N 45°39' E 013°46'0 0.0
2017-Sep-17 06:30N 45°39' E 013°46'0 0.0
2017-Sep-17 06:00N 45°39' E 013°46'0 0.0
2017-Sep-17 05:30N 45°39' E 013°46'0 0.0
2017-Sep-17 05:00N 45°39' E 013°46'0 0.0
2017-Sep-17 04:30N 45°39' E 013°46'2 3.6
2017-Sep-17 04:00N 45°39' E 013°43'4 8.2
2017-Sep-17 03:30N 45°38' E 013°38'5 9.0
2017-Sep-17 03:00N 45°35' E 013°33'5 9.2
2017-Sep-17 02:30N 45°33' E 013°27'4 9.2
2017-Sep-17 02:00N 45°30' E 013°21'4 9.0
2017-Sep-17 01:30N 45°28' E 013°16'4 8.8
2017-Sep-17 01:00N 45°27' E 013°10'4 8.8
2017-Sep-17 00:30N 45°25' E 013°04'4 8.7
2017-Sep-17 00:00N 45°24' E 012°58'4 8.9
2017-Sep-16 23:30N 45°21' E 012°53'4 9.0
2017-Sep-16 23:00N 45°17' E 012°50'5 9.1
2017-Sep-16 22:30N 45°13' E 012°47'5 9.2
2017-Sep-16 22:00N 45°10' E 012°42'4 8.2
2017-Sep-16 21:30N 45°08' E 012°37'5 9.7
2017-Sep-16 21:00N 45°11' E 012°31'5 9.4
2017-Sep-16 20:30N 45°16' E 012°30'5 9.6
2017-Sep-16 20:00N 45°20' E 012°30'4 9.0
2017-Sep-16 19:30N 45°25' E 012°28'4 7.2
2017-Sep-16 19:00N 45°26' E 012°23'2 4.9
2017-Sep-16 18:30N 45°26' E 012°19'1 1.1
2017-Sep-16 18:00N 45°26' E 012°18'0 0.0
2017-Sep-16 17:30N 45°26' E 012°18'0 0.0
2017-Sep-16 17:00N 45°26' E 012°18'0 0.0
2017-Sep-16 16:30N 45°26' E 012°18'0 0.0
2017-Sep-16 16:00N 45°26' E 012°18'0 0.0
2017-Sep-16 15:30N 45°26' E 012°18'0 0.0
2017-Sep-16 15:00N 45°26' E 012°18'0 0.0
2017-Sep-16 14:30N 45°26' E 012°18'0 0.0
2017-Sep-16 14:00N 45°26' E 012°18'0 0.0
2017-Sep-16 13:30N 45°26' E 012°18'0 0.0
2017-Sep-16 13:00N 45°26' E 012°18'0 0.0
2017-Sep-16 12:30N 45°26' E 012°18'0 0.0
2017-Sep-16 12:00N 45°26' E 012°18'0 0.0
2017-Sep-16 11:30N 45°26' E 012°18'0 0.0
2017-Sep-16 11:00N 45°26' E 012°18'0 0.0
2017-Sep-16 10:30N 45°26' E 012°18'0 0.0
2017-Sep-16 10:00N 45°26' E 012°18'0 0.0
2017-Sep-16 09:30N 45°26' E 012°18'0 0.0
2017-Sep-16 09:00N 45°26' E 012°18'0 0.0
2017-Sep-16 08:30N 45°26' E 012°18'0 0.0
2017-Sep-16 08:00N 45°26' E 012°18'0 0.0
2017-Sep-16 07:30N 45°26' E 012°18'0 0.0
2017-Sep-16 07:00N 45°26' E 012°18'0 0.0
2017-Sep-16 06:29N 45°26' E 012°18'0 0.9
2017-Sep-16 06:01N 45°26' E 012°19'2 4.9
2017-Sep-16 05:30N 45°26' E 012°22'4 7.2
2017-Sep-16 05:00N 45°25' E 012°27'917.6
2017-Sep-16 04:30N 45°19' E 012°37'1020.6
2017-Sep-16 04:00N 45°12' E 012°47'1021.1
2017-Sep-16 03:30N 45°05' E 012°59'1121.5
2017-Sep-16 03:00N 44°60' E 013°12'1121.0
2017-Sep-16 02:30N 44°53' E 013°24'1121.3
2017-Sep-16 02:00N 44°44' E 013°32'1121.2
2017-Sep-16 01:30N 44°36' E 013°40'1121.0
2017-Sep-16 01:00N 44°27' E 013°48'1121.1
2017-Sep-16 00:30N 44°18' E 013°56'1121.0
2017-Sep-15 23:59N 44°09' E 014°05'1021.2
2017-Sep-15 23:30N 44°02' E 014°16'27310.4
2017-Sep-14 21:21N 41°03' E 018°54'719.7
2017-Sep-14 21:01N 40°56' E 018°56'1019.9
2017-Sep-14 20:29N 40°46' E 018°59'1019.8
2017-Sep-14 20:00N 40°37' E 019°01'1019.5
2017-Sep-14 19:31N 40°27' E 019°04'1019.3
2017-Sep-14 19:00N 40°18' E 019°06'1119.0
2017-Sep-14 18:26N 40°07' E 019°09'1119.1
2017-Sep-14 17:52N 39°56' E 019°12'919.0
2017-Sep-14 17:22N 39°47' E 019°15'1319.1
2017-Sep-14 16:43N 39°36' E 019°21'819.3
2017-Sep-14 16:18N 39°28' E 019°26'619.4
2017-Sep-14 16:00N 39°23' E 019°29'918.9
2017-Sep-14 15:30N 39°15' E 019°33'27714.4
2017-Sep-13 20:16N 37°12' E 024°50'519.1
2017-Sep-13 20:00N 37°15' E 024°55'1019.3
2017-Sep-13 19:30N 37°21' E 025°04'917.5
2017-Sep-13 19:00N 37°28' E 025°11'712.2
2017-Sep-13 18:28N 37°27' E 025°19'0 0.0
2017-Sep-13 17:58N 37°27' E 025°19'0 0.0
2017-Sep-13 17:25N 37°27' E 025°19'0 0.0
2017-Sep-13 16:52N 37°27' E 025°19'0 0.1
2017-Sep-13 16:28N 37°27' E 025°19'0 0.1
2017-Sep-13 15:58N 37°27' E 025°19'0 0.0
2017-Sep-13 15:22N 37°27' E 025°19'0 0.0
2017-Sep-13 14:58N 37°27' E 025°19'0 0.0
2017-Sep-13 14:28N 37°27' E 025°19'0 0.0
2017-Sep-13 13:58N 37°27' E 025°19'0 0.0
2017-Sep-13 13:28N 37°27' E 025°19'0 0.0
2017-Sep-13 12:37N 37°27' E 025°19'0 0.0
2017-Sep-13 12:28N 37°27' E 025°19'0 0.0
2017-Sep-13 11:58N 37°27' E 025°19'0 0.1
2017-Sep-13 11:28N 37°27' E 025°19'0 0.1
2017-Sep-13 10:58N 37°27' E 025°19'0 0.1
2017-Sep-13 10:28N 37°27' E 025°19'0 0.1
2017-Sep-13 09:58N 37°27' E 025°19'0 0.0
2017-Sep-13 09:28N 37°27' E 025°19'0 0.0
2017-Sep-13 08:58N 37°27' E 025°19'0 0.0
2017-Sep-13 08:28N 37°27' E 025°19'0 0.0
2017-Sep-13 07:58N 37°27' E 025°19'0 0.0
2017-Sep-13 07:28N 37°27' E 025°19'0 0.0
2017-Sep-13 06:58N 37°27' E 025°19'0 0.0
2017-Sep-13 06:28N 37°27' E 025°19'0 0.0
2017-Sep-13 05:58N 37°27' E 025°19'0 0.0
2017-Sep-13 05:28N 37°27' E 025°19'0 0.0
2017-Sep-13 04:52N 37°27' E 025°19'0 0.1
2017-Sep-13 04:28N 37°27' E 025°19'2 3.3
2017-Sep-13 04:00N 37°28' E 025°17'612.7
2017-Sep-13 03:31N 37°27' E 025°09'713.8
2017-Sep-13 03:00N 37°20' E 025°05'713.8
2017-Sep-13 02:30N 37°17' E 024°58'713.8
2017-Sep-13 02:00N 37°13' E 024°51'  
2017-Sep-10 17:47N 44°03' E 014°06'620.5
2017-Sep-10 17:30N 44°08' E 014°01'1020.5
2017-Sep-10 17:00N 44°16' E 013°53'1020.5
2017-Sep-10 16:30N 44°25' E 013°45'1020.4
2017-Sep-10 16:00N 44°33' E 013°38'1020.4
2017-Sep-10 15:30N 44°42' E 013°30'1020.4
2017-Sep-10 15:00N 44°51' E 013°22'2020.0
2017-Sep-10 14:00N 45°07' E 013°06'1019.1
2017-Sep-10 13:30N 45°16' E 013°02'917.8
2017-Sep-10 13:00N 45°25' E 013°06'1020.0
2017-Sep-10 12:30N 45°32' E 013°16'1019.9
2017-Sep-10 12:00N 45°36' E 013°29'918.4
2017-Sep-10 11:30N 45°39' E 013°41'3 5.9
2017-Sep-10 10:58N 45°39' E 013°46'0 0.0
2017-Sep-10 10:22N 45°39' E 013°46'0 0.0
2017-Sep-10 09:58N 45°39' E 013°46'0 0.0
2017-Sep-10 09:28N 45°39' E 013°46'0 0.0
2017-Sep-10 08:55N 45°39' E 013°46'0 0.0
2017-Sep-10 08:25N 45°39' E 013°46'0 0.0
2017-Sep-10 07:58N 45°39' E 013°46'0 0.0
2017-Sep-10 07:22N 45°39' E 013°46'0 0.0
2017-Sep-10 06:58N 45°39' E 013°46'0 0.0
2017-Sep-10 06:25N 45°39' E 013°46'0 0.0
2017-Sep-10 05:55N 45°39' E 013°46'0 0.0
2017-Sep-10 05:25N 45°39' E 013°46'0 0.0
2017-Sep-10 04:58N 45°39' E 013°46'0 0.0
2017-Sep-10 04:28N 45°39' E 013°46'3 5.4
2017-Sep-10 04:00N 45°39' E 013°42'5 9.1
2017-Sep-10 03:30N 45°37' E 013°36'4 8.8
2017-Sep-10 03:00N 45°34' E 013°31'4 8.6
2017-Sep-10 02:30N 45°32' E 013°26'4 8.5
2017-Sep-10 02:00N 45°30' E 013°21'4 8.7
2017-Sep-10 01:30N 45°28' E 013°15'4 8.7
2017-Sep-10 01:00N 45°27' E 013°09'4 8.5
2017-Sep-10 00:30N 45°26' E 013°03'  

Dump ship's entire track history